< Cyclone 200923 2010 Season Cyclone 201005 >
Cyclone 201001 (Laurence)
General InformationDetailed Track InformationTrack Information on Google MapsList of All Images || ResourceGoogle EarthGE AnimationAtom FeedGeoJSON
Detalied Best Track Wind (Time Zone = UTC)
Year Month Day Hour Lat. Long. Wind (kt) Gust (kt) Direc. of Major Storm Axis Radius of Major Storm Axis (nm) Radius of Minor Storm Axis (nm) Direc. of Major Gale Axis Radius of Major Gale Axis (nm) Radius of Minor Gale Axis (nm) Image
2009 12 8 00 -8.8 139.5 0 -1 symmetric - - symmetric - - Image
2009 12 8 06 -9.1 138.2 0 -1 symmetric - - symmetric - - Image
2009 12 8 12 -9.4 138.0 0 -1 symmetric - - symmetric - - Image
2009 12 8 18 -9.6 137.7 0 -1 symmetric - - symmetric - - Image
2009 12 9 00 -9.7 137.2 0 -1 symmetric - - symmetric - - Image
2009 12 9 06 -9.8 136.6 20 45 symmetric - - symmetric - - Image
2009 12 9 12 -9.8 135.9 25 45 symmetric - - symmetric - - Image
2009 12 9 18 -9.8 135.2 25 45 symmetric - - symmetric - - Image
2009 12 10 00 -9.9 134.5 25 45 symmetric - - symmetric - - Image
2009 12 10 06 -10.2 133.7 25 45 symmetric - - symmetric - - Image
2009 12 10 12 -10.3 133.4 25 45 symmetric - - symmetric - - Image
2009 12 10 18 -10.4 133.1 25 45 symmetric - - symmetric - - Image
2009 12 11 00 -10.6 132.7 25 45 symmetric - - symmetric - - Image
2009 12 11 06 -11.2 132.1 25 45 symmetric - - symmetric - - Image
2009 12 11 12 -11.7 131.7 25 45 symmetric - - symmetric - - Image
2009 12 11 18 -12.1 131.1 30 45 symmetric - - symmetric - - Image
2009 12 12 00 -12.4 130.7 35 50 symmetric - - symmetric - - Image
2009 12 12 06 -12.9 130.2 30 45 symmetric - - symmetric - - Image
2009 12 12 12 -13.0 130.0 25 45 symmetric - - symmetric - - Image
2009 12 12 18 -13.1 129.6 25 45 symmetric - - symmetric - - Image
2009 12 13 00 -13.0 128.7 25 45 symmetric - - symmetric - - Image
2009 12 13 06 -12.5 127.9 25 45 symmetric - - symmetric - - Image
2009 12 13 12 -12.1 127.8 25 45 symmetric - - symmetric - - Image
2009 12 13 18 -12.3 128.8 30 45 symmetric - - symmetric - - Image
2009 12 14 00 -12.9 128.5 35 50 symmetric - - symmetric - - Image
2009 12 14 06 -12.9 127.8 40 55 symmetric - - symmetric - - Image
2009 12 14 12 -13.0 127.1 50 70 symmetric - - symmetric - - Image
2009 12 14 18 -13.1 126.6 55 80 symmetric - - symmetric - - Image
2009 12 15 00 -13.5 126.3 65 90 symmetric - - symmetric - - Image
2009 12 15 06 -14.2 125.4 90 125 symmetric - - symmetric - - Image
2009 12 15 12 -14.5 124.9 95 135 symmetric - - symmetric - - Image
2009 12 15 18 -15.0 124.5 100 140 symmetric - - symmetric - - Image
2009 12 15 21 -15.1 124.4 110 155 symmetric - - symmetric - - Image
2009 12 16 00 -15.2 124.2 110 155 symmetric - - symmetric - - Image
2009 12 16 06 -15.8 124.0 95 135 symmetric - - symmetric - - Image
2009 12 16 12 -16.1 124.1 80 115 symmetric - - symmetric - - Image
2009 12 16 18 -16.4 124.2 55 80 symmetric - - symmetric - - Image
2009 12 17 00 -16.8 124.3 40 55 symmetric - - symmetric - - Image
2009 12 17 06 -16.8 124.3 30 45 symmetric - - symmetric - - Image
2009 12 17 12 -16.8 124.3 20 45 symmetric - - symmetric - - Image
2009 12 17 18 -16.8 124.3 15 40 symmetric - - symmetric - - Image
2009 12 18 00 -17.0 124.2 15 40 symmetric - - symmetric - - Image
2009 12 18 06 -17.1 123.9 20 45 symmetric - - symmetric - - Image
2009 12 18 12 -17.0 123.4 25 45 symmetric - - symmetric - - Image
2009 12 18 18 -16.6 122.7 30 45 symmetric - - symmetric - - Image
2009 12 19 00 -16.5 122.6 35 50 symmetric - - symmetric - - Image
2009 12 19 06 -16.8 122.2 50 70 symmetric - - symmetric - - Image
2009 12 19 12 -17.1 121.8 50 70 symmetric - - symmetric - - Image
2009 12 19 18 -17.4 121.3 55 80 symmetric - - symmetric - - Image
2009 12 20 00 -17.7 120.9 60 85 symmetric - - symmetric - - Image
2009 12 20 06 -18.2 120.6 70 100 symmetric - - symmetric - - Image
2009 12 20 12 -18.4 120.4 85 120 symmetric - - symmetric - - Image
2009 12 20 18 -18.6 120.4 100 140 symmetric - - symmetric - - Image
2009 12 21 00 -18.9 120.5 105 150 symmetric - - symmetric - - Image
2009 12 21 06 -19.3 120.6 110 155 symmetric - - symmetric - - Image
2009 12 21 09 -19.6 120.7 110 155 symmetric - - symmetric - - Image
2009 12 21 12 -19.9 120.8 80 115 symmetric - - symmetric - - Image
2009 12 21 18 -20.4 121.0 55 80 symmetric - - symmetric - - Image
2009 12 22 00 -21.0 121.2 40 55 symmetric - - symmetric - - Image
2009 12 22 06 -21.8 121.7 35 50 symmetric - - symmetric - - Image
2009 12 22 12 -22.5 122.8 30 45 symmetric - - symmetric - - Image
2009 12 22 18 -23.3 123.8 30 45 symmetric - - symmetric - - Image
2009 12 23 00 -24.4 125.2 25 45 symmetric - - symmetric - - Image
2009 12 23 06 -25.2 126.9 20 45 symmetric - - symmetric - - Image
< Cyclone 200923 2010 Season Cyclone 201005 >

Help